Werribee, Victoria

6:24 PM AEDT on March 03, 2015 (GMT +1100)
Werribee Weather | Change Station
CLOSE
Current Station
Personal Weather Station
Location: Werribee, Victoria
Elevation: 66 ft
Nearby Weather Stations

Elev 66 ft 37.91 °S, 144.67 °E | Updated 4 seconds ago

Partly Cloudy
Partly Cloudy
70.5 °F
Feels Like 77 °F
N
8.0
Wind Variable Wind from ESE
Gusts 10.0 mph

Today
High -- | Low -- °F
--% Chance of Precip.
Yesterday
High -- | Low -- °F
Precip. -- in
7:06 AM 7:59 PM
Waxing Gibbous, 95% visible
Pressure 29.95 in
Visibility 6.2 miles
Clouds Few 4300 ft
Heat Index 77 °F
Dew Point 52 °F
Humidity 53%
Rainfall 0.00 in
Snow Depth Not available.
UV 2 out of 12
Pollen Not available.
Air Quality Not available.
Flu Activity Not available.
METAR YMML 030700Z 15010KT 9999 FEW043 22/09 Q1014 NOSIG

More Conditions Fewer Conditions

Pressure 29.95 in
Visibility 6.2 miles
Clouds Few 4300 ft
Heat Index 77 °F
Dew Point 52 °F
Humidity 53%
Rainfall 0.00 in
Snow Depth Not available.
UV 2 out of 12
Pollen Not available.
Air Quality Not available.
Flu Activity Not available.
METAR YMML 030700Z 15010KT 9999 FEW043 22/09 Q1014 NOSIG

More Conditions Fewer Conditions

10-Day Weather Forecast

Almanac

Astronomy

Mar. 03, 2015 Rise Set
Actual Time
Civil Twilight
Nautical Twilight
Astronomical Twilight
Moon
Length of Visible Light
Length of Day
Tomorrow will be .
, % of the Moon is Illuminated

Today's Extremes

Country Highs Country Lows

Community

WunderPhotos

Upload Photos

1,802,073 photos uploaded!

WunderBlogs® & News

Nearby

Air Quality

  Air Quality AQ Index Pollutant
Not available.

Snow Depth

Station Depth Elevation

Earthquake Activity

City Distance Mag. Time & Date
Minimum magnitude displayed is 2.5.

Coastal Water Temperatures

Place Temperature

Nearby Weather Stations